Tuesday, April 24, 2018, 4:20 AM EDT
Back to Local

KFWN, Sussex Airport

Location: Sussex, NJ, United States Lat: 41.2
Local Time: 4:20 AM EDT ( 8:20 GMT) Lon: -74.633
Time Zone: US/Eastern Elev: 419 ft

Show me the last for .
Show Decoded

2018-04-24 03:53 METAR KFWN 240753Z AUTO 26003KT 10SM CLR 02/00 A3039 RMK AO2 RAB17E33 SLP290
                 P0000 T00220000 =
2018-04-24 02:53 METAR KFWN 240653Z AUTO 00000KT 10SM CLR 03/00 A3039 RMK AO2 SLP290 T00280000 =
2018-04-24 01:53 METAR KFWN 240553Z AUTO 00000KT 10SM CLR 04/00 A3040 RMK AO2 SLP294 T00390000
                 10144 20033 57007 =
2018-04-24 00:53 METAR KFWN 240453Z AUTO 00000KT 10SM CLR 04/00 A3041 RMK AO2 SLP297 T00390000
                 402111022 =
2018-04-23 23:53 METAR KFWN 240353Z AUTO 00000KT 10SM CLR 06/01 A3041 RMK AO2 SLP298 T00610006 =
2018-04-23 22:53 METAR KFWN 240253Z AUTO 00000KT 10SM CLR 07/M01 A3042 RMK AO2 SLP301 T00721006
                 50009 =
2018-04-23 21:53 METAR KFWN 240153Z AUTO 00000KT 10SM CLR 11/M02 A3042 RMK AO2 SLP303 T01061022 =
2018-04-23 20:53 METAR KFWN 240053Z AUTO 00000KT 10SM CLR 12/M03 A3041 RMK AO2 SLP299 T01221028 =
2018-04-23 19:53 METAR KFWN 232353Z AUTO 18008G15KT 10SM CLR 14/M01 A3039 RMK AO2 SLP293
                 T01441011 10211 20144 53006 =
2018-04-23 18:53 METAR KFWN 232253Z AUTO 15007KT 10SM CLR 17/M02 A3036 RMK AO2 SLP284 T01721017 =
2018-04-23 17:53 METAR KFWN 232153Z AUTO VRB06KT 10SM CLR 19/M02 A3037 RMK AO2 SLP286 T01891017 =
2018-04-23 16:53 METAR KFWN 232053Z AUTO 17007KT 10SM CLR 21/M04 A3037 RMK AO2 SLP287 T02061044
                 56013 =
2018-04-23 15:53 METAR KFWN 231953Z AUTO 21006KT 10SM CLR 21/M04 A3038 RMK AO2 SLP289 T02061044 =
2018-04-23 14:53 METAR KFWN 231853Z AUTO VRB06KT 10SM CLR 21/M02 A3039 RMK AO2 SLP294 T02061022 =
2018-04-23 13:53 METAR KFWN 231753Z AUTO 00000KT 10SM CLR 19/M04 A3041 RMK AO2 SLP300 T01941039
                 10194 20033 58021 =
2018-04-23 12:53 METAR KFWN 231653Z AUTO 04007KT 10SM CLR 18/M03 A3043 RMK AO2 SLP307 T01831033 =
2018-04-23 11:53 METAR KFWN 231553Z AUTO 00000KT 10SM CLR 17/M06 A3046 RMK AO2 SLP315 T01671056 =
2018-04-23 10:53 METAR KFWN 231453Z AUTO 02003KT 10SM CLR 16/M03 A3047 RMK AO2 SLP320 T01561033
                 57000 =
2018-04-23 09:53 METAR KFWN 231353Z AUTO 07005KT 10SM CLR 13/M04 A3048 RMK AO2 SLP322 T01331039 =
2018-04-23 08:53 METAR KFWN 231253Z AUTO 03006KT 10SM CLR 11/M04 A3047 RMK AO2 SLP320 T01111044 =
2018-04-23 07:53 METAR KFWN 231153Z AUTO 00000KT 10SM CLR 03/M01 A3048 RMK AO2 SLP321 T00331006
                 10033 21022 51012 =
2018-04-23 06:53 METAR KFWN 231053Z AUTO 00000KT 10SM CLR 00/M02 A3047 RMK AO2 SLP319 T00001022 =
2018-04-23 05:53 METAR KFWN 230953Z AUTO 00000KT 10SM CLR M02/M03 A3045 RMK AO2 SLP314 T10171033
                 =
2018-04-23 04:53 METAR KFWN 230853Z AUTO 00000KT 10SM CLR M01/M03 A3044 RMK AO2 SLP309 T10111033
                 53012 =

Support USWX by starting your Amazon purchase here.